sensor_id;sensor_type;location;lat;lon;timestamp;pressure;altitude;pressure_sealevel;temperature;humidity
45078;BME280;60508;42.622;25.416;2022-08-21T00:01:12;96184.69;;;23.57;74.40
45078;BME280;60508;42.622;25.416;2022-08-21T00:03:40;96176.44;;;23.57;75.69
45078;BME280;60508;42.622;25.416;2022-08-21T00:06:07;96161.13;;;23.68;74.57
45078;BME280;60508;42.622;25.416;2022-08-21T00:08:33;96124.25;;;23.66;74.86
45078;BME280;60508;42.622;25.416;2022-08-21T00:10:59;96127.22;;;23.85;74.79
45078;BME280;60508;42.622;25.416;2022-08-21T00:13:25;96130.31;;;23.84;74.37
45078;BME280;60508;42.622;25.416;2022-08-21T00:15:51;96137.59;;;23.92;74.25
45078;BME280;60508;42.622;25.416;2022-08-21T00:18:18;96125.72;;;23.76;75.25
45078;BME280;60508;42.622;25.416;2022-08-21T00:20:46;96125.81;;;23.79;73.70
45078;BME280;60508;42.622;25.416;2022-08-21T00:23:12;96115.31;;;23.94;72.33
45078;BME280;60508;42.622;25.416;2022-08-21T00:25:41;96104.47;;;23.85;72.22
45078;BME280;60508;42.622;25.416;2022-08-21T00:28:07;96100.22;;;23.87;71.08
45078;BME280;60508;42.622;25.416;2022-08-21T00:30:34;96091.09;;;23.83;73.63
45078;BME280;60508;42.622;25.416;2022-08-21T00:33:01;96076.81;;;23.90;72.56
45078;BME280;60508;42.622;25.416;2022-08-21T00:35:32;96089.59;;;23.98;70.41
45078;BME280;60508;42.622;25.416;2022-08-21T00:38:00;96079.06;;;23.88;72.50
45078;BME280;60508;42.622;25.416;2022-08-21T00:40:48;96093.38;;;23.94;74.10
45078;BME280;60508;42.622;25.416;2022-08-21T00:43:17;96089.69;;;24.02;73.97
45078;BME280;60508;42.622;25.416;2022-08-21T00:45:44;96086.94;;;24.02;73.92
45078;BME280;60508;42.622;25.416;2022-08-21T00:48:11;96091.06;;;23.96;74.51
45078;BME280;60508;42.622;25.416;2022-08-21T00:50:42;96087.78;;;23.90;74.29
45078;BME280;60508;42.622;25.416;2022-08-21T00:53:10;96087.41;;;23.79;74.24
45078;BME280;60508;42.622;25.416;2022-08-21T00:55:37;96089.25;;;23.75;74.88
45078;BME280;60508;42.622;25.416;2022-08-21T00:58:05;96086.41;;;23.84;73.82
45078;BME280;60508;42.622;25.416;2022-08-21T01:00:35;96066.88;;;23.61;73.97
45078;BME280;60508;42.622;25.416;2022-08-21T01:03:06;96068.72;;;23.57;74.87
45078;BME280;60508;42.622;25.416;2022-08-21T01:05:33;96074.19;;;23.69;74.39
45078;BME280;60508;42.622;25.416;2022-08-21T01:07:59;96079.69;;;23.69;73.35
45078;BME280;60508;42.622;25.416;2022-08-21T01:10:26;96082.44;;;23.69;73.01
45078;BME280;60508;42.622;25.416;2022-08-21T01:12:53;96090.31;;;23.58;73.25
45078;BME280;60508;42.622;25.416;2022-08-21T01:15:23;96086.00;;;23.45;74.23
45078;BME280;60508;42.622;25.416;2022-08-21T01:17:51;96100.59;;;23.49;72.96
45078;BME280;60508;42.622;25.416;2022-08-21T01:20:17;96105.53;;;23.43;73.32
45078;BME280;60508;42.622;25.416;2022-08-21T01:22:44;96109.50;;;23.46;71.98
45078;BME280;60508;42.622;25.416;2022-08-21T01:25:12;96113.75;;;23.43;72.29
45078;BME280;60508;42.622;25.416;2022-08-21T01:27:39;96113.28;;;23.41;72.55
45078;BME280;60508;42.622;25.416;2022-08-21T01:30:14;96080.63;;;23.48;72.73
45078;BME280;60508;42.622;25.416;2022-08-21T01:32:42;96116.38;;;23.64;72.90
45078;BME280;60508;42.622;25.416;2022-08-21T01:35:08;96115.56;;;23.39;74.11
45078;BME280;60508;42.622;25.416;2022-08-21T01:37:35;96101.38;;;23.12;75.95
45078;BME280;60508;42.622;25.416;2022-08-21T01:40:01;96128.94;;;23.16;76.09
45078;BME280;60508;42.622;25.416;2022-08-21T01:42:28;96112.03;;;23.26;76.12
45078;BME280;60508;42.622;25.416;2022-08-21T01:44:53;96099.91;;;23.15;76.16
45078;BME280;60508;42.622;25.416;2022-08-21T01:47:20;96095.81;;;23.21;76.26
45078;BME280;60508;42.622;25.416;2022-08-21T01:49:46;96093.53;;;23.23;76.44
45078;BME280;60508;42.622;25.416;2022-08-21T01:52:13;96085.19;;;23.20;76.43
45078;BME280;60508;42.622;25.416;2022-08-21T01:54:39;96094.53;;;23.19;76.55
45078;BME280;60508;42.622;25.416;2022-08-21T01:57:06;96078.69;;;23.12;76.86
45078;BME280;60508;42.622;25.416;2022-08-21T01:59:32;96071.63;;;23.11;77.21
45078;BME280;60508;42.622;25.416;2022-08-21T02:01:59;96070.56;;;23.15;77.42
45078;BME280;60508;42.622;25.416;2022-08-21T02:04:25;96071.03;;;23.18;76.96
45078;BME280;60508;42.622;25.416;2022-08-21T02:06:51;96066.81;;;23.20;76.71
45078;BME280;60508;42.622;25.416;2022-08-21T02:09:18;96070.81;;;23.23;76.78
45078;BME280;60508;42.622;25.416;2022-08-21T02:11:45;96066.25;;;23.14;76.83
45078;BME280;60508;42.622;25.416;2022-08-21T02:14:13;96061.44;;;23.11;77.25
45078;BME280;60508;42.622;25.416;2022-08-21T02:16:42;96062.13;;;23.08;77.35
45078;BME280;60508;42.622;25.416;2022-08-21T02:19:09;96067.44;;;22.92;78.09
45078;BME280;60508;42.622;25.416;2022-08-21T02:21:36;96060.25;;;22.75;79.18
45078;BME280;60508;42.622;25.416;2022-08-21T02:24:02;96064.81;;;22.71;79.45
45078;BME280;60508;42.622;25.416;2022-08-21T02:26:28;96071.22;;;22.75;79.82
45078;BME280;60508;42.622;25.416;2022-08-21T02:28:55;96074.41;;;22.77;80.13
45078;BME280;60508;42.622;25.416;2022-08-21T02:31:21;96079.09;;;22.77;79.70
45078;BME280;60508;42.622;25.416;2022-08-21T02:33:47;96076.44;;;22.68;79.04
45078;BME280;60508;42.622;25.416;2022-08-21T02:36:13;96078.38;;;22.80;78.92
45078;BME280;60508;42.622;25.416;2022-08-21T02:38:41;96083.44;;;22.90;78.66
45078;BME280;60508;42.622;25.416;2022-08-21T02:41:13;96077.63;;;22.92;78.57
45078;BME280;60508;42.622;25.416;2022-08-21T02:43:39;96091.06;;;22.85;78.95
45078;BME280;60508;42.622;25.416;2022-08-21T02:46:08;96087.03;;;22.70;79.65
45078;BME280;60508;42.622;25.416;2022-08-21T02:48:35;96082.59;;;22.65;80.53
45078;BME280;60508;42.622;25.416;2022-08-21T02:51:08;96078.44;;;22.59;81.18
45078;BME280;60508;42.622;25.416;2022-08-21T02:53:35;96095.09;;;22.54;81.87
45078;BME280;60508;42.622;25.416;2022-08-21T02:56:04;96104.69;;;22.60;82.67
45078;BME280;60508;42.622;25.416;2022-08-21T02:58:35;96113.34;;;22.50;82.87
45078;BME280;60508;42.622;25.416;2022-08-21T03:01:01;96106.41;;;22.31;83.23
45078;BME280;60508;42.622;25.416;2022-08-21T03:03:29;96114.75;;;22.35;82.58
45078;BME280;60508;42.622;25.416;2022-08-21T03:05:55;96127.84;;;22.29;82.80
45078;BME280;60508;42.622;25.416;2022-08-21T03:08:25;96128.84;;;22.24;83.39
45078;BME280;60508;42.622;25.416;2022-08-21T03:10:51;96131.06;;;22.31;83.08
45078;BME280;60508;42.622;25.416;2022-08-21T03:13:18;96127.31;;;22.36;82.44
45078;BME280;60508;42.622;25.416;2022-08-21T03:15:46;96122.06;;;22.31;81.91
45078;BME280;60508;42.622;25.416;2022-08-21T03:18:13;96140.88;;;22.32;82.14
45078;BME280;60508;42.622;25.416;2022-08-21T03:20:41;96138.47;;;22.31;82.30
45078;BME280;60508;42.622;25.416;2022-08-21T03:23:08;96140.78;;;22.20;82.38
45078;BME280;60508;42.622;25.416;2022-08-21T03:25:35;96132.53;;;22.08;82.87
45078;BME280;60508;42.622;25.416;2022-08-21T03:28:04;96143.72;;;22.15;83.02
45078;BME280;60508;42.622;25.416;2022-08-21T03:30:30;96149.06;;;22.11;83.31
45078;BME280;60508;42.622;25.416;2022-08-21T03:32:58;96150.09;;;21.98;83.97
45078;BME280;60508;42.622;25.416;2022-08-21T03:35:25;96155.31;;;22.12;83.63
45078;BME280;60508;42.622;25.416;2022-08-21T03:37:51;96164.16;;;22.17;83.73
45078;BME280;60508;42.622;25.416;2022-08-21T03:40:19;96160.94;;;22.15;84.37
45078;BME280;60508;42.622;25.416;2022-08-21T03:42:46;96167.06;;;22.12;84.22
45078;BME280;60508;42.622;25.416;2022-08-21T03:45:14;96169.88;;;22.03;84.31
45078;BME280;60508;42.622;25.416;2022-08-21T03:47:59;96173.59;;;21.99;83.14
45078;BME280;60508;42.622;25.416;2022-08-21T03:50:29;96184.75;;;21.94;83.08
45078;BME280;60508;42.622;25.416;2022-08-21T03:52:56;96172.38;;;21.87;83.60
45078;BME280;60508;42.622;25.416;2022-08-21T03:55:22;96180.38;;;21.93;83.25
45078;BME280;60508;42.622;25.416;2022-08-21T03:57:48;96164.06;;;21.84;82.84
45078;BME280;60508;42.622;25.416;2022-08-21T04:00:15;96185.59;;;21.85;81.58
45078;BME280;60508;42.622;25.416;2022-08-21T04:02:42;96177.84;;;21.87;80.62
45078;BME280;60508;42.622;25.416;2022-08-21T04:05:09;96186.59;;;21.81;80.67
45078;BME280;60508;42.622;25.416;2022-08-21T04:07:36;96192.56;;;21.74;81.03
45078;BME280;60508;42.622;25.416;2022-08-21T04:10:04;96191.34;;;21.63;80.60
45078;BME280;60508;42.622;25.416;2022-08-21T04:12:31;96188.16;;;21.61;80.23
45078;BME280;60508;42.622;25.416;2022-08-21T04:14:57;96185.75;;;21.59;80.09
45078;BME280;60508;42.622;25.416;2022-08-21T04:17:23;96152.09;;;21.29;79.64
45078;BME280;60508;42.622;25.416;2022-08-21T04:19:50;96197.66;;;21.55;79.94
45078;BME280;60508;42.622;25.416;2022-08-21T04:22:16;96200.91;;;21.48;79.64
45078;BME280;60508;42.622;25.416;2022-08-21T04:24:42;96203.94;;;21.46;79.19
45078;BME280;60508;42.622;25.416;2022-08-21T04:27:08;96193.34;;;21.36;79.62
45078;BME280;60508;42.622;25.416;2022-08-21T04:29:34;96203.50;;;21.36;79.28
45078;BME280;60508;42.622;25.416;2022-08-21T04:32:00;96200.25;;;21.42;79.43
45078;BME280;60508;42.622;25.416;2022-08-21T04:34:26;96204.72;;;21.47;79.75
45078;BME280;60508;42.622;25.416;2022-08-21T04:36:52;96198.19;;;21.48;79.88
45078;BME280;60508;42.622;25.416;2022-08-21T04:39:18;96195.91;;;21.50;79.79
45078;BME280;60508;42.622;25.416;2022-08-21T04:41:44;96197.28;;;21.65;79.10
45078;BME280;60508;42.622;25.416;2022-08-21T04:44:09;96170.66;;;21.53;78.34
45078;BME280;60508;42.622;25.416;2022-08-21T04:49:01;96182.53;;;21.57;78.69
45078;BME280;60508;42.622;25.416;2022-08-21T04:51:30;96179.31;;;21.55;78.62
45078;BME280;60508;42.622;25.416;2022-08-21T04:54:01;96191.38;;;21.54;78.47
45078;BME280;60508;42.622;25.416;2022-08-21T04:56:31;96177.41;;;21.47;78.96
45078;BME280;60508;42.622;25.416;2022-08-21T04:59:01;96186.25;;;21.44;79.38
45078;BME280;60508;42.622;25.416;2022-08-21T05:01:33;96185.66;;;21.38;80.06
45078;BME280;60508;42.622;25.416;2022-08-21T05:04:01;96195.28;;;21.36;80.79
45078;BME280;60508;42.622;25.416;2022-08-21T05:06:31;96187.88;;;21.36;81.64
45078;BME280;60508;42.622;25.416;2022-08-21T05:09:00;96187.75;;;21.32;81.46
45078;BME280;60508;42.622;25.416;2022-08-21T05:11:28;96188.53;;;21.33;81.67
45078;BME280;60508;42.622;25.416;2022-08-21T05:13:55;96182.94;;;21.29;81.28
45078;BME280;60508;42.622;25.416;2022-08-21T05:16:21;96177.47;;;21.29;80.31
45078;BME280;60508;42.622;25.416;2022-08-21T05:18:48;96159.84;;;21.18;79.52
45078;BME280;60508;42.622;25.416;2022-08-21T05:21:13;96151.50;;;21.14;79.04
45078;BME280;60508;42.622;25.416;2022-08-21T05:23:39;96183.56;;;21.35;76.92
45078;BME280;60508;42.622;25.416;2022-08-21T05:26:05;96187.38;;;21.43;75.20
45078;BME280;60508;42.622;25.416;2022-08-21T05:28:31;96174.69;;;21.47;75.70
45078;BME280;60508;42.622;25.416;2022-08-21T05:30:58;96190.56;;;21.62;76.50
45078;BME280;60508;42.622;25.416;2022-08-21T05:33:24;96187.78;;;21.71;76.95
45078;BME280;60508;42.622;25.416;2022-08-21T05:35:52;96182.75;;;21.73;77.55
45078;BME280;60508;42.622;25.416;2022-08-21T05:38:18;96185.31;;;21.78;78.28
45078;BME280;60508;42.622;25.416;2022-08-21T05:40:45;96191.84;;;21.86;78.04
45078;BME280;60508;42.622;25.416;2022-08-21T05:43:12;96184.94;;;21.88;77.93
45078;BME280;60508;42.622;25.416;2022-08-21T05:45:37;96187.88;;;21.83;77.58
45078;BME280;60508;42.622;25.416;2022-08-21T05:48:08;96185.59;;;21.85;75.96
45078;BME280;60508;42.622;25.416;2022-08-21T05:50:35;96177.81;;;21.96;75.98
45078;BME280;60508;42.622;25.416;2022-08-21T05:53:03;96183.97;;;22.14;75.58
45078;BME280;60508;42.622;25.416;2022-08-21T05:55:29;96187.06;;;22.34;75.38
45078;BME280;60508;42.622;25.416;2022-08-21T05:57:55;96176.38;;;22.41;74.63
45078;BME280;60508;42.622;25.416;2022-08-21T06:00:22;96198.25;;;22.62;74.30
45078;BME280;60508;42.622;25.416;2022-08-21T06:02:49;96180.81;;;22.67;73.49
45078;BME280;60508;42.622;25.416;2022-08-21T06:05:17;96183.59;;;22.79;73.23
45078;BME280;60508;42.622;25.416;2022-08-21T06:07:43;96180.31;;;22.86;72.82
45078;BME280;60508;42.622;25.416;2022-08-21T06:10:10;96180.44;;;22.89;72.11
45078;BME280;60508;42.622;25.416;2022-08-21T06:12:36;96182.63;;;22.96;71.99
45078;BME280;60508;42.622;25.416;2022-08-21T06:15:02;96195.09;;;22.72;73.00
45078;BME280;60508;42.622;25.416;2022-08-21T06:17:29;96192.31;;;22.93;73.04
45078;BME280;60508;42.622;25.416;2022-08-21T06:19:54;96195.25;;;23.09;72.24
45078;BME280;60508;42.622;25.416;2022-08-21T06:22:21;96202.09;;;23.15;71.76
45078;BME280;60508;42.622;25.416;2022-08-21T06:24:47;96197.09;;;23.30;70.77
45078;BME280;60508;42.622;25.416;2022-08-21T06:27:14;96192.53;;;23.46;71.28
45078;BME280;60508;42.622;25.416;2022-08-21T06:29:40;96202.41;;;23.60;70.22
45078;BME280;60508;42.622;25.416;2022-08-21T06:32:10;96209.72;;;23.68;69.25
45078;BME280;60508;42.622;25.416;2022-08-21T06:34:37;96169.03;;;23.45;68.68
45078;BME280;60508;42.622;25.416;2022-08-21T06:37:04;96209.25;;;23.66;67.35
45078;BME280;60508;42.622;25.416;2022-08-21T06:39:31;96209.81;;;23.72;66.85
45078;BME280;60508;42.622;25.416;2022-08-21T06:41:57;96210.94;;;23.70;66.60
45078;BME280;60508;42.622;25.416;2022-08-21T06:44:29;96206.28;;;23.71;66.49
45078;BME280;60508;42.622;25.416;2022-08-21T06:46:56;96210.50;;;23.68;67.05
45078;BME280;60508;42.622;25.416;2022-08-21T06:49:22;96208.59;;;23.69;66.29
45078;BME280;60508;42.622;25.416;2022-08-21T06:51:49;96208.91;;;23.67;66.33
45078;BME280;60508;42.622;25.416;2022-08-21T06:54:16;96209.38;;;23.69;66.08
45078;BME280;60508;42.622;25.416;2022-08-21T06:56:42;96223.22;;;23.85;66.17
45078;BME280;60508;42.622;25.416;2022-08-21T06:59:08;96199.19;;;23.82;66.21
45078;BME280;60508;42.622;25.416;2022-08-21T07:01:34;96215.91;;;24.02;65.44
45078;BME280;60508;42.622;25.416;2022-08-21T07:04:00;96217.13;;;24.04;65.81
45078;BME280;60508;42.622;25.416;2022-08-21T07:06:26;96216.00;;;23.93;65.07
45078;BME280;60508;42.622;25.416;2022-08-21T07:08:52;96220.34;;;23.94;66.21
45078;BME280;60508;42.622;25.416;2022-08-21T07:11:20;96213.25;;;23.93;65.59
45078;BME280;60508;42.622;25.416;2022-08-21T07:13:48;96214.78;;;23.91;66.00
45078;BME280;60508;42.622;25.416;2022-08-21T07:16:17;96211.25;;;23.90;65.64
45078;BME280;60508;42.622;25.416;2022-08-21T07:18:43;96209.38;;;23.94;65.36
45078;BME280;60508;42.622;25.416;2022-08-21T07:21:09;96205.63;;;23.99;65.31
45078;BME280;60508;42.622;25.416;2022-08-21T07:23:45;96198.66;;;24.01;65.61
45078;BME280;60508;42.622;25.416;2022-08-21T07:26:13;96198.31;;;24.03;65.10
45078;BME280;60508;42.622;25.416;2022-08-21T07:28:40;96201.59;;;24.09;65.65
45078;BME280;60508;42.622;25.416;2022-08-21T07:31:06;96198.72;;;24.17;65.95
45078;BME280;60508;42.622;25.416;2022-08-21T07:33:35;96184.09;;;24.13;65.53
45078;BME280;60508;42.622;25.416;2022-08-21T07:36:02;96166.63;;;24.05;65.27
45078;BME280;60508;42.622;25.416;2022-08-21T07:38:28;96177.22;;;24.19;64.44
45078;BME280;60508;42.622;25.416;2022-08-21T07:40:56;96175.28;;;24.20;64.61
45078;BME280;60508;42.622;25.416;2022-08-21T07:43:24;96174.72;;;24.14;65.04
45078;BME280;60508;42.622;25.416;2022-08-21T07:45:51;96164.16;;;24.29;65.13
45078;BME280;60508;42.622;25.416;2022-08-21T07:48:18;96151.50;;;24.24;65.67
45078;BME280;60508;42.622;25.416;2022-08-21T07:50:44;96157.75;;;24.37;66.49
45078;BME280;60508;42.622;25.416;2022-08-21T07:53:10;96147.47;;;24.50;66.37
45078;BME280;60508;42.622;25.416;2022-08-21T07:55:36;96151.06;;;24.50;65.83
45078;BME280;60508;42.622;25.416;2022-08-21T07:58:03;96137.44;;;24.41;66.25
45078;BME280;60508;42.622;25.416;2022-08-21T08:00:29;96149.19;;;24.54;67.33
45078;BME280;60508;42.622;25.416;2022-08-21T08:02:56;96151.47;;;24.65;67.91
45078;BME280;60508;42.622;25.416;2022-08-21T08:05:25;96143.41;;;24.72;67.97
45078;BME280;60508;42.622;25.416;2022-08-21T08:07:52;96149.75;;;24.88;66.61
45078;BME280;60508;42.622;25.416;2022-08-21T08:10:19;96150.66;;;24.92;65.22
45078;BME280;60508;42.622;25.416;2022-08-21T08:12:45;96152.69;;;24.95;65.64
45078;BME280;60508;42.622;25.416;2022-08-21T08:15:15;96141.44;;;25.01;65.77
45078;BME280;60508;42.622;25.416;2022-08-21T08:17:42;96136.81;;;25.21;67.86
45078;BME280;60508;42.622;25.416;2022-08-21T08:20:10;96141.75;;;25.27;68.43
45078;BME280;60508;42.622;25.416;2022-08-21T08:22:37;96141.25;;;25.25;69.04
45078;BME280;60508;42.622;25.416;2022-08-21T08:25:06;96140.91;;;25.27;68.93
45078;BME280;60508;42.622;25.416;2022-08-21T08:27:32;96140.03;;;25.23;69.33
45078;BME280;60508;42.622;25.416;2022-08-21T08:29:58;96136.34;;;25.31;69.27
45078;BME280;60508;42.622;25.416;2022-08-21T08:32:24;96134.66;;;25.42;67.17
45078;BME280;60508;42.622;25.416;2022-08-21T08:34:50;96137.13;;;25.47;66.46
45078;BME280;60508;42.622;25.416;2022-08-21T08:37:18;96130.84;;;25.47;66.58
45078;BME280;60508;42.622;25.416;2022-08-21T08:39:45;96116.91;;;25.40;65.65
45078;BME280;60508;42.622;25.416;2022-08-21T08:42:18;96114.25;;;25.27;65.68
45078;BME280;60508;42.622;25.416;2022-08-21T08:44:49;96119.19;;;25.06;65.14
45078;BME280;60508;42.622;25.416;2022-08-21T08:47:19;96122.56;;;24.99;65.28
45078;BME280;60508;42.622;25.416;2022-08-21T08:52:33;96111.03;;;24.93;65.73
45078;BME280;60508;42.622;25.416;2022-08-21T08:55:23;96111.53;;;24.83;66.42
45078;BME280;60508;42.622;25.416;2022-08-21T08:57:48;96110.19;;;24.77;67.18
45078;BME280;60508;42.622;25.416;2022-08-21T09:00:17;96099.56;;;24.75;67.81
45078;BME280;60508;42.622;25.416;2022-08-21T09:02:45;96098.31;;;24.73;68.32
45078;BME280;60508;42.622;25.416;2022-08-21T09:08:21;96092.75;;;24.69;68.50
45078;BME280;60508;42.622;25.416;2022-08-21T09:11:01;96087.94;;;24.66;68.76
45078;BME280;60508;42.622;25.416;2022-08-21T09:22:08;96067.75;;;24.74;70.04
45078;BME280;60508;42.622;25.416;2022-08-21T09:24:58;96081.25;;;24.95;70.00
45078;BME280;60508;42.622;25.416;2022-08-21T09:27:28;96083.81;;;25.04;70.38
45078;BME280;60508;42.622;25.416;2022-08-21T09:29:55;96083.00;;;25.04;69.91
45078;BME280;60508;42.622;25.416;2022-08-21T09:32:34;96087.81;;;25.07;70.69
45078;BME280;60508;42.622;25.416;2022-08-21T09:35:05;96088.59;;;25.07;69.59
45078;BME280;60508;42.622;25.416;2022-08-21T09:37:34;96087.38;;;25.05;70.19
45078;BME280;60508;42.622;25.416;2022-08-21T09:40:02;96088.94;;;25.06;69.18
45078;BME280;60508;42.622;25.416;2022-08-21T09:42:40;96088.78;;;25.30;68.49
45078;BME280;60508;42.622;25.416;2022-08-21T09:45:17;96087.19;;;25.45;68.08
45078;BME280;60508;42.622;25.416;2022-08-21T09:47:43;96097.34;;;25.61;67.36
45078;BME280;60508;42.622;25.416;2022-08-21T09:50:16;96098.03;;;25.74;66.64
45078;BME280;60508;42.622;25.416;2022-08-21T09:52:46;96092.09;;;25.72;65.42
45078;BME280;60508;42.622;25.416;2022-08-21T09:55:21;96092.16;;;25.75;65.70
45078;BME280;60508;42.622;25.416;2022-08-21T09:58:07;96091.75;;;25.73;65.24
45078;BME280;60508;42.622;25.416;2022-08-21T10:00:35;96075.56;;;25.52;65.21
45078;BME280;60508;42.622;25.416;2022-08-21T10:03:28;96101.72;;;25.46;65.38
45078;BME280;60508;42.622;25.416;2022-08-21T10:08:24;96089.66;;;25.50;65.29
45078;BME280;60508;42.622;25.416;2022-08-21T10:10:56;96100.81;;;25.58;64.44
45078;BME280;60508;42.622;25.416;2022-08-21T10:13:54;96091.22;;;25.67;64.19
45078;BME280;60508;42.622;25.416;2022-08-21T10:24:34;96089.50;;;26.14;59.92
45078;BME280;60508;42.622;25.416;2022-08-21T10:30:09;96088.19;;;26.08;60.67
45078;BME280;60508;42.622;25.416;2022-08-21T10:35:33;96082.47;;;25.97;59.95
45078;BME280;60508;42.622;25.416;2022-08-21T10:38:28;96082.25;;;26.06;59.67
45078;BME280;60508;42.622;25.416;2022-08-21T10:41:27;96084.84;;;25.99;59.35
45078;BME280;60508;42.622;25.416;2022-08-21T10:46:37;96094.06;;;26.07;58.93
45078;BME280;60508;42.622;25.416;2022-08-21T10:52:20;96075.78;;;25.98;57.50
45078;BME280;60508;42.622;25.416;2022-08-21T10:54:52;96078.94;;;25.97;57.73
45078;BME280;60508;42.622;25.416;2022-08-21T11:00:11;96070.88;;;26.08;57.48
45078;BME280;60508;42.622;25.416;2022-08-21T11:02:42;96071.28;;;26.10;56.66
45078;BME280;60508;42.622;25.416;2022-08-21T11:05:31;96076.25;;;26.00;55.22
45078;BME280;60508;42.622;25.416;2022-08-21T11:10:40;96073.78;;;26.34;55.22
45078;BME280;60508;42.622;25.416;2022-08-21T11:13:24;96075.94;;;26.25;54.13
45078;BME280;60508;42.622;25.416;2022-08-21T11:16:21;96071.03;;;26.34;52.73
45078;BME280;60508;42.622;25.416;2022-08-21T11:18:55;96070.00;;;26.42;53.88
45078;BME280;60508;42.622;25.416;2022-08-21T11:29:13;96048.38;;;26.64;52.47
45078;BME280;60508;42.622;25.416;2022-08-21T11:49:17;96032.28;;;27.66;49.34
45078;BME280;60508;42.622;25.416;2022-08-21T11:52:07;96023.44;;;27.53;48.40
45078;BME280;60508;42.622;25.416;2022-08-21T11:54:53;96023.91;;;27.59;49.09
45078;BME280;60508;42.622;25.416;2022-08-21T12:00:00;96017.38;;;27.71;49.59
45078;BME280;60508;42.622;25.416;2022-08-21T12:02:52;96013.41;;;27.68;48.00
45078;BME280;60508;42.622;25.416;2022-08-21T12:05:29;95995.91;;;27.57;47.41
45078;BME280;60508;42.622;25.416;2022-08-21T12:08:04;96000.28;;;27.61;47.75
45078;BME280;60508;42.622;25.416;2022-08-21T12:10:35;96001.44;;;27.57;48.42
45078;BME280;60508;42.622;25.416;2022-08-21T12:13:11;95992.75;;;27.58;48.72
45078;BME280;60508;42.622;25.416;2022-08-21T12:15:47;95992.09;;;27.38;49.28
45078;BME280;60508;42.622;25.416;2022-08-21T12:18:23;95989.59;;;27.29;49.37
45078;BME280;60508;42.622;25.416;2022-08-21T12:21:22;95989.28;;;27.35;48.78
45078;BME280;60508;42.622;25.416;2022-08-21T12:26:55;95985.63;;;27.54;47.59
45078;BME280;60508;42.622;25.416;2022-08-21T12:29:24;95982.84;;;27.54;47.53
45078;BME280;60508;42.622;25.416;2022-08-21T12:32:04;95985.47;;;27.73;47.31
45078;BME280;60508;42.622;25.416;2022-08-21T12:34:40;95993.41;;;27.78;47.12
45078;BME280;60508;42.622;25.416;2022-08-21T12:39:51;95995.25;;;27.97;47.17
45078;BME280;60508;42.622;25.416;2022-08-21T12:42:51;95996.09;;;28.01;47.71
45078;BME280;60508;42.622;25.416;2022-08-21T12:45:32;95996.31;;;27.89;47.92
45078;BME280;60508;42.622;25.416;2022-08-21T12:48:06;96002.09;;;27.80;48.76
45078;BME280;60508;42.622;25.416;2022-08-21T12:53:29;95993.16;;;27.57;50.02
45078;BME280;60508;42.622;25.416;2022-08-21T12:55:57;95991.44;;;27.48;50.86
45078;BME280;60508;42.622;25.416;2022-08-21T12:58:27;96009.22;;;27.51;50.85
45078;BME280;60508;42.622;25.416;2022-08-21T13:01:03;95994.69;;;27.54;49.72
45078;BME280;60508;42.622;25.416;2022-08-21T13:03:30;96002.09;;;27.50;49.44
45078;BME280;60508;42.622;25.416;2022-08-21T13:05:59;96007.56;;;27.46;49.39
45078;BME280;60508;42.622;25.416;2022-08-21T13:08:26;95999.72;;;27.48;49.50
45078;BME280;60508;42.622;25.416;2022-08-21T13:11:02;96006.25;;;27.37;48.48
45078;BME280;60508;42.622;25.416;2022-08-21T13:13:29;96005.78;;;27.31;48.95
45078;BME280;60508;42.622;25.416;2022-08-21T13:16:02;96007.72;;;27.30;48.92
45078;BME280;60508;42.622;25.416;2022-08-21T13:18:31;95995.53;;;27.31;48.60
45078;BME280;60508;42.622;25.416;2022-08-21T13:21:14;95997.56;;;27.35;48.71
45078;BME280;60508;42.622;25.416;2022-08-21T13:23:40;96005.69;;;27.27;47.18
45078;BME280;60508;42.622;25.416;2022-08-21T13:26:15;95994.53;;;27.17;47.21
45078;BME280;60508;42.622;25.416;2022-08-21T13:28:41;96007.25;;;27.25;47.34
45078;BME280;60508;42.622;25.416;2022-08-21T13:31:10;96005.69;;;27.27;47.94
45078;BME280;60508;42.622;25.416;2022-08-21T13:33:37;96010.94;;;27.32;48.34
45078;BME280;60508;42.622;25.416;2022-08-21T13:36:11;96007.38;;;27.32;48.77
45078;BME280;60508;42.622;25.416;2022-08-21T13:38:40;95995.47;;;27.28;49.05
45078;BME280;60508;42.622;25.416;2022-08-21T13:41:29;95981.25;;;27.26;50.51
45078;BME280;60508;42.622;25.416;2022-08-21T13:44:02;96000.00;;;27.40;49.40
45078;BME280;60508;42.622;25.416;2022-08-21T13:46:32;95989.69;;;27.63;50.18
45078;BME280;60508;42.622;25.416;2022-08-21T13:49:00;95993.81;;;27.80;49.78
45078;BME280;60508;42.622;25.416;2022-08-21T13:51:27;95994.44;;;27.97;48.61
45078;BME280;60508;42.622;25.416;2022-08-21T13:53:53;95975.97;;;28.01;47.63
45078;BME280;60508;42.622;25.416;2022-08-21T13:56:29;95987.19;;;28.15;47.30
45078;BME280;60508;42.622;25.416;2022-08-21T13:58:56;95974.16;;;28.16;46.78
45078;BME280;60508;42.622;25.416;2022-08-21T14:03:52;95971.03;;;28.21;46.20
45078;BME280;60508;42.622;25.416;2022-08-21T14:06:21;95971.19;;;28.35;46.41
45078;BME280;60508;42.622;25.416;2022-08-21T14:08:57;95965.75;;;28.42;46.21
45078;BME280;60508;42.622;25.416;2022-08-21T14:11:24;95967.84;;;28.56;45.35
45078;BME280;60508;42.622;25.416;2022-08-21T14:16:26;95971.81;;;29.04;43.78
45078;BME280;60508;42.622;25.416;2022-08-21T14:21:37;95967.31;;;31.69;39.97
45078;BME280;60508;42.622;25.416;2022-08-21T14:24:06;95963.94;;;32.17;37.95
45078;BME280;60508;42.622;25.416;2022-08-21T14:26:34;95959.84;;;31.29;37.57
45078;BME280;60508;42.622;25.416;2022-08-21T14:29:07;95968.56;;;30.56;39.08
45078;BME280;60508;42.622;25.416;2022-08-21T14:31:33;95961.66;;;29.92;41.09